Battle Point — NMBY — position and weather

sailwx.info

Track history (hours):
 
Tides and Currents Weather Stations Pressure Air Temp Water Temp Dewpoint Dewpoint Depression Visibility Wind Speed Wind Dir Waves Ship Positions

Battle Point

Last reported at 2016-Jul-27 17:33 UTC. Time now 2016-Aug-28 08:42 UTC.
Position N 47°44' W 122°44'.
Warning: this ship's position is 31 days out of date.

Length 57 m; draft 3.2 m.

MMSI: 369970254.

Date/timePositionNaut miles runAvg speedWind from/ knotsBaromVisibWave heightAir tempDewpointWater temp
2016-Jul-27 17:33N 47°44' W 122°44'0 0.1
2016-Jul-27 16:34N 47°44' W 122°45'0 0.0
2016-Jul-27 15:33N 47°44' W 122°45'0 0.1
2016-Jul-27 14:33N 47°44' W 122°44'0 0.0
2016-Jul-27 13:32N 47°44' W 122°44'0 0.0
2016-Jul-27 12:33N 47°44' W 122°44'0 0.0
2016-Jul-27 10:15N 47°44' W 122°44'0 0.0
2016-Jul-27 07:10N 47°44' W 122°44'0 0.0
2016-Jul-27 06:33N 47°44' W 122°44'0 0.0
2016-Jul-27 05:31N 47°44' W 122°44'0 0.0
2016-Jul-27 04:31N 47°44' W 122°44'0 0.0
2016-Jul-27 03:29N 47°44' W 122°44'0 0.0
2016-Jul-27 02:29N 47°44' W 122°44'0 0.0
2016-Jul-27 01:27N 47°44' W 122°44'0 0.0
2016-Jul-27 00:33N 47°44' W 122°44'0 0.0
2016-Jul-26 23:31N 47°44' W 122°44'  
2016-Jul-24 03:33N 47°48' W 122°42'7 7.3
2016-Jul-24 02:32N 47°54' W 122°36'1110.8
2016-Jul-24 01:31N 48°05' W 122°40'1312.4
2016-Jul-24 00:28N 48°17' W 122°48'910.1
2016-Jul-23 23:33N 48°26' W 122°45'9 9.3
2016-Jul-23 22:33N 48°35' W 122°46'10 9.6
2016-Jul-23 21:33N 48°44' W 122°47'1111.0
2016-Jul-23 20:33N 48°50' W 123°01'1110.9
2016-Jul-23 19:33N 48°57' W 123°14'1111.1
2016-Jul-23 18:33N 49°04' W 123°27'1010.3
2016-Jul-23 17:33N 49°10' W 123°40'1111.0
2016-Jul-23 16:33N 49°15' W 123°55'9 9.1
2016-Jul-23 15:33N 49°16' W 124°09'1 0.1
2016-Jul-23 01:31N 49°16' W 124°07'7 6.9
2016-Jul-23 00:33N 49°18' W 123°57'0 0.0
2016-Jul-22 23:33N 49°18' W 123°57'0 0.0
2016-Jul-22 22:29N 49°18' W 123°57'0 0.1
2016-Jul-22 21:33N 49°18' W 123°57'0 0.0
2016-Jul-22 20:29N 49°18' W 123°57'0 0.1
2016-Jul-22 19:33N 49°18' W 123°57'0 0.0
2016-Jul-22 18:33N 49°18' W 123°57'0 0.0
2016-Jul-22 17:33N 49°18' W 123°57'0 0.0
2016-Jul-22 16:33N 49°18' W 123°57'7 7.1
2016-Jul-22 15:32N 49°16' W 124°08'1 0.7
2016-Jul-22 14:33N 49°16' W 124°09'7 0.4
2016-Jul-21 22:33N 49°17' W 123°58'1 1.1
2016-Jul-21 21:33N 49°18' W 123°57'0 0.0
2016-Jul-21 20:32N 49°18' W 123°57'0 0.2
2016-Jul-21 19:30N 49°18' W 123°57'0 0.0
2016-Jul-21 18:33N 49°18' W 123°57'0 0.0
2016-Jul-21 17:33N 49°18' W 123°57'0 0.0
2016-Jul-21 16:34N 49°18' W 123°57'7 6.4
2016-Jul-21 15:30N 49°16' W 124°07'2 1.6
2016-Jul-21 14:31N 49°16' W 124°09'0 0.0
2016-Jul-19 21:33N 49°16' W 124°09'0 0.0
2016-Jul-19 20:33N 49°16' W 124°09'0 0.0
2016-Jul-19 19:33N 49°16' W 124°09'  
Track history (hours):
 
Tides and Currents Weather Stations Pressure Air Temp Water Temp Dewpoint Dewpoint Depression Visibility Wind Speed Wind Dir Waves Ship Positions

Battle Point

Last reported at 2016-Jul-27 17:33 UTC. Time now 2016-Aug-28 08:42 UTC.
Position N 47°44' W 122°44'.
Warning: this ship's position is 31 days out of date.

Length 57 m; draft 3.2 m.

MMSI: 369970254.

Date/timePositionNaut miles runAvg speedWind from/ knotsBaromVisibWave heightAir tempDewpointWater temp
2016-Jul-27 17:33N 47°44' W 122°44'0 0.1
2016-Jul-27 16:34N 47°44' W 122°45'0 0.0
2016-Jul-27 15:33N 47°44' W 122°45'0 0.1
2016-Jul-27 14:33N 47°44' W 122°44'0 0.0
2016-Jul-27 13:32N 47°44' W 122°44'0 0.0
2016-Jul-27 12:33N 47°44' W 122°44'0 0.0
2016-Jul-27 10:15N 47°44' W 122°44'0 0.0
2016-Jul-27 07:10N 47°44' W 122°44'0 0.0
2016-Jul-27 06:33N 47°44' W 122°44'0 0.0
2016-Jul-27 05:31N 47°44' W 122°44'0 0.0
2016-Jul-27 04:31N 47°44' W 122°44'0 0.0
2016-Jul-27 03:29N 47°44' W 122°44'0 0.0
2016-Jul-27 02:29N 47°44' W 122°44'0 0.0
2016-Jul-27 01:27N 47°44' W 122°44'0 0.0
2016-Jul-27 00:33N 47°44' W 122°44'0 0.0
2016-Jul-26 23:31N 47°44' W 122°44'  
2016-Jul-24 03:33N 47°48' W 122°42'7 7.3
2016-Jul-24 02:32N 47°54' W 122°36'1110.8
2016-Jul-24 01:31N 48°05' W 122°40'1312.4
2016-Jul-24 00:28N 48°17' W 122°48'910.1
2016-Jul-23 23:33N 48°26' W 122°45'9 9.3
2016-Jul-23 22:33N 48°35' W 122°46'10 9.6
2016-Jul-23 21:33N 48°44' W 122°47'1111.0
2016-Jul-23 20:33N 48°50' W 123°01'1110.9
2016-Jul-23 19:33N 48°57' W 123°14'1111.1
2016-Jul-23 18:33N 49°04' W 123°27'1010.3
2016-Jul-23 17:33N 49°10' W 123°40'1111.0
2016-Jul-23 16:33N 49°15' W 123°55'9 9.1
2016-Jul-23 15:33N 49°16' W 124°09'1 0.1
2016-Jul-23 01:31N 49°16' W 124°07'7 6.9
2016-Jul-23 00:33N 49°18' W 123°57'0 0.0
2016-Jul-22 23:33N 49°18' W 123°57'0 0.0
2016-Jul-22 22:29N 49°18' W 123°57'0 0.1
2016-Jul-22 21:33N 49°18' W 123°57'0 0.0
2016-Jul-22 20:29N 49°18' W 123°57'0 0.1
2016-Jul-22 19:33N 49°18' W 123°57'0 0.0
2016-Jul-22 18:33N 49°18' W 123°57'0 0.0
2016-Jul-22 17:33N 49°18' W 123°57'0 0.0
2016-Jul-22 16:33N 49°18' W 123°57'7 7.1
2016-Jul-22 15:32N 49°16' W 124°08'1 0.7
2016-Jul-22 14:33N 49°16' W 124°09'7 0.4
2016-Jul-21 22:33N 49°17' W 123°58'1 1.1
2016-Jul-21 21:33N 49°18' W 123°57'0 0.0
2016-Jul-21 20:32N 49°18' W 123°57'0 0.2
2016-Jul-21 19:30N 49°18' W 123°57'0 0.0
2016-Jul-21 18:33N 49°18' W 123°57'0 0.0
2016-Jul-21 17:33N 49°18' W 123°57'0 0.0
2016-Jul-21 16:34N 49°18' W 123°57'7 6.4
2016-Jul-21 15:30N 49°16' W 124°07'2 1.6
2016-Jul-21 14:31N 49°16' W 124°09'0 0.0
2016-Jul-19 21:33N 49°16' W 124°09'0 0.0
2016-Jul-19 20:33N 49°16' W 124°09'0 0.0
2016-Jul-19 19:33N 49°16' W 124°09'  

Dump ship's entire track history